createdAt,value
2022-10-19T00:01:41.031Z,62.32
2022-10-19T00:04:10.599Z,61.98
2022-10-19T00:06:43.348Z,62.34
2022-10-19T00:09:16.415Z,62.28
2022-10-19T00:11:52.381Z,62.23
2022-10-19T00:14:25.354Z,62.19
2022-10-19T00:16:53.539Z,61.96
2022-10-19T00:19:26.314Z,62.71
2022-10-19T00:21:58.099Z,62.02
2022-10-19T00:24:28.343Z,62.21
2022-10-19T00:26:56.968Z,62.17
2022-10-19T00:29:23.811Z,62.41
2022-10-19T00:31:51.467Z,61.94
2022-10-19T00:34:18.510Z,62.29
2022-10-19T00:36:46.029Z,62.11
2022-10-19T00:39:15.139Z,62.45
2022-10-19T00:41:43.110Z,62.49
2022-10-19T00:44:12.701Z,62.31
2022-10-19T00:46:42.311Z,62.52
2022-10-19T00:49:24.817Z,62.04
2022-10-19T00:51:54.919Z,62.36
2022-10-19T00:54:22.599Z,62.62
2022-10-19T00:56:52.180Z,62.47
2022-10-19T00:59:43.940Z,62.52
2022-10-19T01:02:13.846Z,62.33
2022-10-19T01:04:59.641Z,62.36
2022-10-19T01:07:30.367Z,62.43
2022-10-19T01:10:00.915Z,62.37
2022-10-19T01:12:39.945Z,62.10
2022-10-19T01:15:22.309Z,62.36
2022-10-19T01:18:14.126Z,62.36
2022-10-19T01:20:53.100Z,62.10
2022-10-19T01:23:57.240Z,62.49
2022-10-19T01:29:52.653Z,62.20
2022-10-19T01:32:32.905Z,61.96
2022-10-19T01:35:07.298Z,62.40
2022-10-19T01:37:42.113Z,62.45
2022-10-19T01:41:01.776Z,62.50
2022-10-19T01:43:31.363Z,62.31
2022-10-19T01:46:11.632Z,62.40
2022-10-19T01:48:50.973Z,62.53
2022-10-19T01:51:23.150Z,62.47
2022-10-19T01:53:57.308Z,62.42
2022-10-19T01:56:27.806Z,62.15
2022-10-19T01:58:58.164Z,62.30
2022-10-19T02:01:28.707Z,62.41
2022-10-19T02:03:57.406Z,62.08
2022-10-19T02:06:24.200Z,62.36
2022-10-19T02:08:53.567Z,62.50
2022-10-19T02:11:22.218Z,62.28
2022-10-19T02:13:54.738Z,62.69
2022-10-19T02:16:27.538Z,62.08
2022-10-19T02:18:56.529Z,62.47
2022-10-19T02:21:29.813Z,62.38
2022-10-19T02:24:02.243Z,62.31
2022-10-19T02:26:29.526Z,62.25
2022-10-19T02:29:00.740Z,62.57
2022-10-19T02:31:29.952Z,62.20
2022-10-19T02:34:05.120Z,62.15
2022-10-19T02:36:33.649Z,62.20
2022-10-19T02:39:02.371Z,62.76
2022-10-19T02:41:55.867Z,62.41
2022-10-19T02:44:54.077Z,62.65
2022-10-19T02:48:08.035Z,62.19
2022-10-19T02:50:40.538Z,62.64
2022-10-19T02:53:10.064Z,62.24
2022-10-19T02:58:08.040Z,62.04
2022-10-19T03:00:39.990Z,62.31
2022-10-19T03:03:12.166Z,62.39
2022-10-19T03:05:40.894Z,62.16
2022-10-19T03:08:13.309Z,62.24
2022-10-19T03:10:40.177Z,62.40
2022-10-19T03:13:08.790Z,62.16
2022-10-19T03:15:36.900Z,62.28
2022-10-19T03:18:05.520Z,62.03
2022-10-19T03:20:35.853Z,62.47
2022-10-19T03:23:02.709Z,62.05
2022-10-19T03:25:29.570Z,62.37
2022-10-19T03:28:01.680Z,62.62
2022-10-19T03:30:32.786Z,62.17
2022-10-19T03:33:11.129Z,62.45
2022-10-19T03:35:39.773Z,61.97
2022-10-19T03:38:06.608Z,62.12
2022-10-19T03:40:39.618Z,62.34
2022-10-19T03:43:09.765Z,62.55
2022-10-19T03:45:36.600Z,62.51
2022-10-19T03:48:10.181Z,62.60
2022-10-19T03:50:38.946Z,62.53
2022-10-19T03:53:05.822Z,62.02
2022-10-19T03:55:35.181Z,62.00
2022-10-19T03:58:03.240Z,62.22
2022-10-19T04:00:31.715Z,62.47
2022-10-19T04:02:58.580Z,62.23
2022-10-19T04:05:30.270Z,62.03
2022-10-19T04:07:58.982Z,62.64
2022-10-19T04:10:25.817Z,62.62
2022-10-19T04:12:53.878Z,62.27
2022-10-19T04:15:26.023Z,62.04
2022-10-19T04:17:55.973Z,61.98
2022-10-19T04:20:28.325Z,61.86
2022-10-19T04:22:58.236Z,62.76
2022-10-19T04:25:28.955Z,62.07
2022-10-19T04:28:06.310Z,62.66
2022-10-19T04:30:33.589Z,62.25
2022-10-19T04:33:00.447Z,62.23
2022-10-19T04:35:27.438Z,62.35
2022-10-19T04:37:54.292Z,62.20
2022-10-19T04:40:23.215Z,62.70
2022-10-19T04:42:50.087Z,62.19
2022-10-19T04:45:17.103Z,62.26
2022-10-19T04:47:43.866Z,62.15
2022-10-19T04:50:10.713Z,62.38
2022-10-19T04:52:37.647Z,61.85
2022-10-19T04:55:05.023Z,62.10
2022-10-19T04:57:32.224Z,62.19
2022-10-19T04:59:59.281Z,62.25
2022-10-19T05:02:26.055Z,62.16
2022-10-19T05:04:53.462Z,62.49
2022-10-19T05:07:20.322Z,62.13
2022-10-19T05:09:47.243Z,62.45
2022-10-19T05:12:14.071Z,61.71
2022-10-19T05:14:42.889Z,62.34
2022-10-19T05:17:10.023Z,61.87
2022-10-19T05:19:36.891Z,62.67
2022-10-19T05:22:03.835Z,61.92
2022-10-19T05:24:32.590Z,62.10
2022-10-19T05:26:59.469Z,62.45
2022-10-19T05:29:26.431Z,61.94
2022-10-19T05:31:53.364Z,61.86
2022-10-19T05:34:20.263Z,61.90
2022-10-19T05:36:47.197Z,62.19
2022-10-19T05:39:18.050Z,62.12
2022-10-19T05:41:46.684Z,62.00
2022-10-19T05:44:18.752Z,61.91
2022-10-19T05:46:46.479Z,62.01
2022-10-19T05:49:14.616Z,62.64
2022-10-19T05:51:42.003Z,62.09
2022-10-19T05:54:09.815Z,62.04
2022-10-19T05:56:37.263Z,62.02
2022-10-19T05:59:06.114Z,62.10
2022-10-19T06:01:33.496Z,61.96
2022-10-19T06:04:02.830Z,61.91
2022-10-19T06:06:30.964Z,62.06
2022-10-19T06:08:59.057Z,62.20
2022-10-19T06:11:35.191Z,62.15
2022-10-19T06:14:04.604Z,62.32
2022-10-19T06:16:32.354Z,62.21
2022-10-19T06:19:00.014Z,61.87
2022-10-19T06:21:30.798Z,62.32
2022-10-19T06:24:00.757Z,62.31
2022-10-19T06:26:28.587Z,62.41
2022-10-19T06:29:00.678Z,62.03
2022-10-19T06:31:29.555Z,62.01
2022-10-19T06:33:56.634Z,61.81
2022-10-19T06:36:28.785Z,62.16
2022-10-19T06:38:56.703Z,61.79
2022-10-19T06:41:23.700Z,62.09
2022-10-19T06:43:54.971Z,62.00
2022-10-19T06:46:24.639Z,61.94
2022-10-19T06:48:55.439Z,61.78
2022-10-19T06:51:23.254Z,61.75
2022-10-19T06:53:54.211Z,62.08
2022-10-19T06:56:24.793Z,62.30
2022-10-19T06:58:51.919Z,61.92
2022-10-19T07:01:19.224Z,62.27
2022-10-19T07:03:46.243Z,61.68
2022-10-19T07:06:14.102Z,62.10
2022-10-19T07:08:42.447Z,61.92
2022-10-19T07:11:16.147Z,62.15
2022-10-19T07:13:43.343Z,61.95
2022-10-19T07:16:16.063Z,62.12
2022-10-19T07:18:47.489Z,61.77
2022-10-19T07:21:16.127Z,62.01
2022-10-19T07:23:44.685Z,61.70
2022-10-19T07:26:23.240Z,62.01
2022-10-19T07:28:50.717Z,61.80
2022-10-19T07:31:20.640Z,62.38
2022-10-19T07:33:52.334Z,62.28
2022-10-19T07:36:19.634Z,62.27
2022-10-19T07:38:46.556Z,62.08
2022-10-19T07:41:16.702Z,61.93
2022-10-19T07:43:45.200Z,61.93
2022-10-19T07:46:17.587Z,62.24
2022-10-19T07:48:45.097Z,62.13
2022-10-19T07:51:14.413Z,62.24
2022-10-19T07:53:41.759Z,62.29
2022-10-19T07:56:14.418Z,62.63
2022-10-19T07:58:41.673Z,61.82
2022-10-19T08:01:12.370Z,61.95
2022-10-19T08:06:26.538Z,62.36
2022-10-19T08:08:54.515Z,62.31
2022-10-19T08:11:34.190Z,62.31
2022-10-19T08:14:04.784Z,62.44
2022-10-19T08:16:40.626Z,62.43
2022-10-19T08:19:12.781Z,62.01
2022-10-19T08:21:41.791Z,61.96
2022-10-19T08:24:10.145Z,62.30
2022-10-19T08:26:38.997Z,62.20
2022-10-19T08:29:12.531Z,61.95
2022-10-19T08:31:40.452Z,62.05
2022-10-19T08:34:07.323Z,62.08
2022-10-19T08:36:35.696Z,61.84
2022-10-19T08:39:05.037Z,62.34
2022-10-19T08:41:41.313Z,62.25
2022-10-19T08:44:20.315Z,61.87
2022-10-19T08:47:35.042Z,61.73
2022-10-19T08:50:03.595Z,61.80
2022-10-19T08:52:34.817Z,62.08
2022-10-19T08:55:09.154Z,62.29
2022-10-19T08:57:55.881Z,62.16
2022-10-19T09:00:43.348Z,62.08
2022-10-19T09:03:55.518Z,61.79
2022-10-19T09:06:45.073Z,61.79
2022-10-19T09:09:16.872Z,61.88
2022-10-19T09:11:49.978Z,61.91
2022-10-19T09:14:26.000Z,62.17
2022-10-19T09:17:02.477Z,62.09
2022-10-19T09:19:31.940Z,62.13
2022-10-19T09:22:07.770Z,61.92
2022-10-19T09:24:41.573Z,62.02
2022-10-19T09:27:20.805Z,62.03
2022-10-19T09:29:57.478Z,61.85
2022-10-19T09:32:33.554Z,61.70
2022-10-19T09:35:04.058Z,61.95
2022-10-19T09:37:32.897Z,62.17
2022-10-19T09:39:59.841Z,61.77
2022-10-19T09:42:33.647Z,62.04
2022-10-19T09:45:11.740Z,62.09
2022-10-19T09:47:40.517Z,61.71
2022-10-19T09:50:16.318Z,61.72
2022-10-19T09:52:48.834Z,61.75
2022-10-19T09:55:23.746Z,61.70
2022-10-19T09:57:59.623Z,61.63
2022-10-19T10:00:37.368Z,61.76
2022-10-19T10:03:06.173Z,61.73
2022-10-19T10:05:39.607Z,61.57
2022-10-19T10:08:15.568Z,61.76
2022-10-19T10:11:07.098Z,61.57
2022-10-19T10:13:40.418Z,61.65
2022-10-19T10:16:10.161Z,61.49
2022-10-19T10:19:00.345Z,61.79
2022-10-19T10:21:45.982Z,61.84
2022-10-19T10:24:12.843Z,61.87
2022-10-19T10:26:42.718Z,61.59
2022-10-19T10:29:27.892Z,61.98
2022-10-19T10:32:24.922Z,61.84
2022-10-19T10:35:07.144Z,61.53
2022-10-19T10:37:41.767Z,61.51
2022-10-19T10:40:23.262Z,61.64
2022-10-19T10:42:53.650Z,61.85
2022-10-19T10:45:26.198Z,61.49
2022-10-19T10:47:53.892Z,61.48
2022-10-19T10:50:27.950Z,61.75
2022-10-19T10:53:03.603Z,61.39
2022-10-19T10:55:31.788Z,61.42
2022-10-19T10:58:31.015Z,61.65
2022-10-19T11:01:06.612Z,61.75
2022-10-19T11:03:37.982Z,61.37
2022-10-19T11:06:05.048Z,61.28
2022-10-19T11:08:49.435Z,61.54
2022-10-19T11:11:48.972Z,61.35
2022-10-19T11:14:43.977Z,61.70
2022-10-19T11:17:28.141Z,61.69
2022-10-19T11:19:55.247Z,61.11
2022-10-19T11:22:45.450Z,61.60
2022-10-19T11:25:32.556Z,61.33
2022-10-19T11:28:15.523Z,61.32
2022-10-19T11:31:21.214Z,61.34
2022-10-19T11:34:00.402Z,61.27
2022-10-19T11:36:56.457Z,61.19
2022-10-19T11:39:54.373Z,61.37
2022-10-19T11:42:24.338Z,61.52
2022-10-19T11:45:23.433Z,61.63
2022-10-19T11:48:12.252Z,61.30
2022-10-19T11:50:54.331Z,61.48
2022-10-19T11:53:33.361Z,61.39
2022-10-19T11:56:08.308Z,61.17
2022-10-19T11:58:44.397Z,61.46
2022-10-19T12:01:40.260Z,61.27
2022-10-19T12:04:25.638Z,61.12
2022-10-19T12:07:10.041Z,61.08
2022-10-19T12:10:03.084Z,61.05
2022-10-19T12:12:36.116Z,61.41
2022-10-19T12:15:11.914Z,60.85
2022-10-19T12:17:43.454Z,61.09
2022-10-19T12:20:29.742Z,61.08
2022-10-19T12:22:59.681Z,61.01
2022-10-19T12:25:27.773Z,61.15
2022-10-19T12:27:55.403Z,60.88
2022-10-19T12:30:24.052Z,61.27
2022-10-19T12:33:22.829Z,61.29
2022-10-19T12:36:09.238Z,60.87
2022-10-19T12:38:47.934Z,60.89
2022-10-19T12:41:37.831Z,61.10
2022-10-19T12:44:35.547Z,61.07
2022-10-19T12:47:17.818Z,60.94
2022-10-19T12:49:57.735Z,61.05
2022-10-19T12:52:38.324Z,60.68
2022-10-19T12:55:24.547Z,60.87
2022-10-19T12:58:21.506Z,60.99
2022-10-19T13:01:00.675Z,60.72
2022-10-19T13:03:34.500Z,60.78
2022-10-19T13:06:13.097Z,61.03
2022-10-19T13:08:46.641Z,61.05
2022-10-19T13:11:15.649Z,60.83
2022-10-19T13:13:54.095Z,60.64
2022-10-19T13:16:30.145Z,60.66
2022-10-19T13:19:00.265Z,60.82
2022-10-19T13:21:54.666Z,60.94
2022-10-19T13:24:24.539Z,60.93
2022-10-19T13:27:03.537Z,60.55
2022-10-19T13:29:39.631Z,60.85
2022-10-19T13:32:31.553Z,60.57
2022-10-19T13:35:30.915Z,60.91
2022-10-19T13:38:12.814Z,60.53
2022-10-19T13:40:48.761Z,60.81
2022-10-19T13:43:44.754Z,60.84
2022-10-19T13:46:30.112Z,61.00
2022-10-19T13:49:15.954Z,60.46
2022-10-19T13:52:00.972Z,60.52
2022-10-19T13:54:50.496Z,60.79
2022-10-19T13:57:43.417Z,60.73
2022-10-19T14:00:35.934Z,60.66
2022-10-19T14:03:11.637Z,60.72
2022-10-19T14:05:47.605Z,60.36
2022-10-19T14:08:26.788Z,60.65
2022-10-19T14:11:03.922Z,60.42
2022-10-19T14:13:31.511Z,60.58
2022-10-19T14:16:01.512Z,60.63
2022-10-19T14:18:36.536Z,60.84
2022-10-19T14:21:09.357Z,60.54
2022-10-19T14:23:41.792Z,60.41
2022-10-19T14:26:16.776Z,60.73
2022-10-19T14:28:43.824Z,60.53
2022-10-19T14:31:20.085Z,60.85
2022-10-19T14:33:50.625Z,60.56
2022-10-19T14:36:23.393Z,60.57
2022-10-19T14:38:54.962Z,60.03
2022-10-19T14:41:27.963Z,60.45
2022-10-19T14:43:56.441Z,60.63
2022-10-19T14:46:31.828Z,60.46
2022-10-19T14:49:05.835Z,60.11
2022-10-19T14:51:50.288Z,60.70
2022-10-19T14:54:32.659Z,60.32
2022-10-19T14:57:07.343Z,60.27
2022-10-19T15:00:00.561Z,60.51
2022-10-19T15:02:37.274Z,60.27
2022-10-19T15:05:06.454Z,60.37
2022-10-19T15:07:39.656Z,60.28
2022-10-19T15:10:16.944Z,60.37
2022-10-19T15:12:45.204Z,60.16
2022-10-19T15:15:24.290Z,60.55
2022-10-19T15:18:05.274Z,60.56
2022-10-19T15:20:49.611Z,60.45
2022-10-19T15:23:42.427Z,60.50
2022-10-19T15:26:24.793Z,60.31
2022-10-19T15:28:54.900Z,60.40
2022-10-19T15:31:26.619Z,60.48
2022-10-19T15:33:59.579Z,60.23
2022-10-19T15:36:28.620Z,60.50
2022-10-19T15:39:06.247Z,60.18
2022-10-19T15:41:45.590Z,60.42
2022-10-19T15:44:33.868Z,60.37
2022-10-19T15:47:27.397Z,60.25
2022-10-19T15:50:00.107Z,60.04
2022-10-19T15:52:33.279Z,59.83
2022-10-19T15:55:01.194Z,60.31
2022-10-19T15:57:37.353Z,60.32
2022-10-19T16:00:13.334Z,60.17
2022-10-19T16:02:40.925Z,60.30
2022-10-19T16:05:08.295Z,60.23
2022-10-19T16:07:38.570Z,60.11
2022-10-19T16:10:06.926Z,60.27
2022-10-19T16:12:33.862Z,59.94
2022-10-19T16:15:00.754Z,60.50
2022-10-19T16:17:27.821Z,60.31
2022-10-19T16:19:54.711Z,60.12
2022-10-19T16:22:21.715Z,60.47
2022-10-19T16:24:48.673Z,60.31
2022-10-19T16:27:16.391Z,60.57
2022-10-19T16:29:44.708Z,60.57
2022-10-19T16:32:11.644Z,60.33
2022-10-19T16:34:38.671Z,60.60
2022-10-19T16:37:07.201Z,60.53
2022-10-19T16:39:34.688Z,60.33
2022-10-19T16:42:01.605Z,60.29
2022-10-19T16:44:28.678Z,60.48
2022-10-19T16:46:59.323Z,60.36
2022-10-19T16:49:26.745Z,60.34
2022-10-19T16:51:56.498Z,60.28
2022-10-19T16:54:26.798Z,60.34
2022-10-19T16:56:55.719Z,60.57
2022-10-19T16:59:22.938Z,60.43
2022-10-19T17:01:50.079Z,60.54
2022-10-19T17:04:20.253Z,60.61
2022-10-19T17:06:47.443Z,60.66
2022-10-19T17:09:41.393Z,60.63
2022-10-19T17:12:02.257Z,60.30
2022-10-19T17:14:29.182Z,60.33
2022-10-19T17:16:56.100Z,60.52
2022-10-19T17:19:23.345Z,60.41
2022-10-19T17:21:50.433Z,60.32
2022-10-19T17:24:21.964Z,60.54
2022-10-19T17:26:51.271Z,60.35
2022-10-19T17:29:19.683Z,60.53
2022-10-19T17:31:48.084Z,60.28
2022-10-19T17:34:15.122Z,60.66
2022-10-19T17:36:46.047Z,60.53
2022-10-19T17:39:25.662Z,60.36
2022-10-19T17:42:01.456Z,60.35
2022-10-19T17:44:30.704Z,60.21
2022-10-19T17:46:58.051Z,60.28
2022-10-19T17:49:25.227Z,60.44
2022-10-19T17:51:53.668Z,60.34
2022-10-19T17:54:20.835Z,60.49
2022-10-19T17:56:47.859Z,60.18
2022-10-19T17:59:15.161Z,60.20
2022-10-19T18:01:42.222Z,60.42
2022-10-19T18:04:09.123Z,60.57
2022-10-19T18:06:37.223Z,60.34
2022-10-19T18:09:08.659Z,60.49
2022-10-19T18:11:40.234Z,60.40
2022-10-19T18:14:09.072Z,60.55
2022-10-19T18:16:39.438Z,60.46
2022-10-19T18:19:08.053Z,60.38
2022-10-19T18:21:39.868Z,60.49
2022-10-19T18:24:14.280Z,60.61
2022-10-19T18:26:42.755Z,60.28
2022-10-19T18:29:19.248Z,60.34
2022-10-19T18:31:51.470Z,60.69
2022-10-19T18:34:21.113Z,60.49
2022-10-19T18:36:48.432Z,60.38
2022-10-19T18:39:15.446Z,60.57
2022-10-19T18:41:42.484Z,60.56
2022-10-19T18:44:13.145Z,60.21
2022-10-19T18:46:40.704Z,60.62
2022-10-19T18:49:08.442Z,60.54
2022-10-19T18:51:35.662Z,60.29
2022-10-19T18:54:02.862Z,60.12
2022-10-19T18:56:29.947Z,60.36
2022-10-19T18:58:57.402Z,60.40
2022-10-19T19:01:29.219Z,60.11
2022-10-19T19:04:04.466Z,60.07
2022-10-19T19:06:32.776Z,60.44
2022-10-19T19:09:01.200Z,60.36
2022-10-19T19:11:32.993Z,60.35
2022-10-19T19:14:17.577Z,60.31
2022-10-19T19:16:45.685Z,60.33
2022-10-19T19:19:14.362Z,60.41
2022-10-19T19:21:44.149Z,60.23
2022-10-19T19:24:18.093Z,60.38
2022-10-19T19:26:49.409Z,60.39
2022-10-19T19:29:17.771Z,60.37
2022-10-19T19:31:44.838Z,60.01
2022-10-19T19:34:12.170Z,59.83
2022-10-19T19:36:46.451Z,60.29
2022-10-19T19:39:19.384Z,59.77
2022-10-19T19:41:47.061Z,60.07
2022-10-19T19:44:14.035Z,59.87
2022-10-19T19:46:40.924Z,60.29
2022-10-19T19:49:08.266Z,60.25
2022-10-19T19:51:35.757Z,60.35
2022-10-19T19:54:03.159Z,59.85
2022-10-19T19:56:30.325Z,60.29
2022-10-19T19:58:59.224Z,60.13
2022-10-19T20:01:26.679Z,60.22
2022-10-19T20:03:54.148Z,59.80
2022-10-19T20:06:25.034Z,60.11
2022-10-19T20:08:54.869Z,60.08
2022-10-19T20:11:22.888Z,60.34
2022-10-19T20:13:50.482Z,60.18
2022-10-19T20:16:22.704Z,60.22
2022-10-19T20:18:55.647Z,59.92
2022-10-19T20:21:25.282Z,60.20
2022-10-19T20:23:52.366Z,60.04
2022-10-19T20:26:24.278Z,60.20
2022-10-19T20:28:52.162Z,60.29
2022-10-19T20:33:57.864Z,60.27
2022-10-19T20:36:39.058Z,60.17
2022-10-19T20:39:06.167Z,60.10
2022-10-19T20:41:37.713Z,60.19
2022-10-19T20:44:06.597Z,60.23
2022-10-19T20:46:33.782Z,60.28
2022-10-19T20:49:08.609Z,60.46
2022-10-19T20:51:40.493Z,60.37
2022-10-19T20:54:16.249Z,60.05
2022-10-19T20:56:46.543Z,60.22
2022-10-19T20:59:19.679Z,60.06
2022-10-19T21:01:51.408Z,60.29
2022-10-19T21:04:20.645Z,60.52
2022-10-19T21:07:02.429Z,60.37
2022-10-19T21:09:31.798Z,60.17
2022-10-19T21:12:05.399Z,60.17
2022-10-19T21:14:33.208Z,60.06
2022-10-19T21:17:00.524Z,60.55
2022-10-19T21:19:33.187Z,60.50
2022-10-19T21:22:08.984Z,60.14
2022-10-19T21:24:39.542Z,60.17
2022-10-19T21:27:09.824Z,60.44
2022-10-19T21:29:39.976Z,60.03
2022-10-19T21:32:10.151Z,60.35
2022-10-19T21:34:41.058Z,60.16
2022-10-19T21:37:08.737Z,59.88
2022-10-19T21:39:36.591Z,60.02
2022-10-19T21:42:06.280Z,60.32
2022-10-19T21:44:33.235Z,60.12
2022-10-19T21:47:08.882Z,60.05
2022-10-19T21:49:45.887Z,60.13
2022-10-19T21:52:16.200Z,59.88
2022-10-19T21:54:53.629Z,60.41
2022-10-19T21:57:20.478Z,60.24
2022-10-19T21:59:50.966Z,60.01
2022-10-19T22:02:23.682Z,60.19
2022-10-19T22:04:50.783Z,59.95
2022-10-19T22:07:17.689Z,60.10
2022-10-19T22:09:44.595Z,60.11
2022-10-19T22:12:11.474Z,59.77
2022-10-19T22:15:03.592Z,60.09
2022-10-19T22:17:33.081Z,60.18
2022-10-19T22:20:00.917Z,60.45
2022-10-19T22:22:32.035Z,59.94
2022-10-19T22:25:03.663Z,60.02
2022-10-19T22:27:32.074Z,60.30
2022-10-19T22:29:59.822Z,60.39
2022-10-19T22:32:26.727Z,60.15
2022-10-19T22:34:58.999Z,60.42
2022-10-19T22:37:29.118Z,60.39
2022-10-19T22:40:12.623Z,60.16
2022-10-19T22:42:39.639Z,59.87
2022-10-19T22:45:22.852Z,60.08
2022-10-19T22:47:49.768Z,60.34
2022-10-19T22:50:28.474Z,60.03
2022-10-19T22:53:02.462Z,60.22
2022-10-19T22:55:31.951Z,60.22
2022-10-19T22:58:02.097Z,59.98
2022-10-19T23:00:34.203Z,60.11
2022-10-19T23:03:01.113Z,60.33
2022-10-19T23:05:33.227Z,60.34
2022-10-19T23:08:05.412Z,60.31
2022-10-19T23:10:35.089Z,60.34
2022-10-19T23:13:09.828Z,60.20
2022-10-19T23:15:46.338Z,60.16
2022-10-19T23:18:18.037Z,60.39
2022-10-19T23:21:14.328Z,60.27
2022-10-19T23:23:48.425Z,60.36
2022-10-19T23:26:23.114Z,60.21
2022-10-19T23:28:54.703Z,60.42
2022-10-19T23:31:36.639Z,60.31
2022-10-19T23:34:03.568Z,60.24
2022-10-19T23:36:30.822Z,60.15
2022-10-19T23:39:00.516Z,60.32
2022-10-19T23:41:51.155Z,59.98
2022-10-19T23:44:18.028Z,60.25
2022-10-19T23:46:48.221Z,60.33
2022-10-19T23:49:16.531Z,60.15
2022-10-19T23:51:44.718Z,60.36
2022-10-19T23:54:13.652Z,60.44
2022-10-19T23:56:42.712Z,60.35
2022-10-19T23:59:16.593Z,60.21
